Hauptseite
METAR-TAF:

METAR-TAF

Flughäfen :

Sullivan County International Airport

Monticello, New York, Vereinigte Staaten

Breite: 41-42N, Länge: 074-48W, Höhe: 428 m

Beobachtung

Neuester Wetterbericht von vor 15 Minuten, um 20:56 UTC
Wind 10 kt aus Süd
Temperatur 4°C
Luftfeuchtigkeit 100%
Luftdruck 1009 hPa
Sichtweite: 11.3 km
Geschlossene Wolkendecke in der Höhe von 200 ft
Leichtregen

METAR: KMSV 092056Z AUTO 17010KT 7SM -RA OVC002 04/04 A2981 RMK AO2 SLP106 P0005 60013 T00440044 58019

Zeit: 16:11 (21:11 UTC)


TAF: fehlend

Wetterbeobachtungen und Prognosen von mehr als 4000 Flughäfen (METAR und TAF Bericht).

Die verfügbaren Stationen werden durch gelbe und rote Markierungen auf der Karte dargestellt.

Führen Sie die Maus auf sie, um den Namen der Station zu sehen.

Darauf klicken, um die Beobachtung von Wetterbeobachtungen und Prognosen zu sehen.

Um die Karte zu ändern : klicken Sie auf den grünen Tasten mit einem schwarzen Kreuz Zum Vergrößern, auf den grünen Button mit einem Gedankenstrich zu verkleinern, oder auf die grünen Pfeile für benachbarte Karten.


METAR-TAF: